createdAt,value
2022-12-05T00:54:48.015Z,6.00
2022-12-05T00:57:49.557Z,6.32
2022-12-05T01:00:51.118Z,6.03
2022-12-05T01:03:57.446Z,5.97
2022-12-05T01:06:58.983Z,6.25
2022-12-05T01:10:00.425Z,6.22
2022-12-05T01:13:01.874Z,6.20
2022-12-05T01:16:04.311Z,5.88
2022-12-05T01:19:11.726Z,5.18
2022-12-05T01:22:13.253Z,5.18
2022-12-05T01:25:14.774Z,5.35
2022-12-05T01:28:17.158Z,5.35
2022-12-05T01:31:22.207Z,5.63
2022-12-05T01:34:24.867Z,5.38
2022-12-05T01:37:26.363Z,4.72
2022-12-05T01:40:27.906Z,5.70
2022-12-05T01:43:29.481Z,5.07
2022-12-05T01:46:33.858Z,5.28
2022-12-05T01:49:39.649Z,4.75
2022-12-05T01:52:41.277Z,5.43
2022-12-05T01:55:43.249Z,5.40
2022-12-05T01:58:45.747Z,4.85
2022-12-05T02:01:47.347Z,4.47
2022-12-05T02:05:07.111Z,4.78
2022-12-05T02:08:10.646Z,4.40
2022-12-05T02:11:12.544Z,4.88
2022-12-05T02:14:26.358Z,4.50
2022-12-05T02:17:58.861Z,4.40
2022-12-05T02:21:09.379Z,4.50
2022-12-05T02:24:30.197Z,4.32
2022-12-05T02:28:00.178Z,4.57
2022-12-05T02:31:11.146Z,5.05
2022-12-05T02:34:19.881Z,4.68
2022-12-05T02:37:30.403Z,4.80
2022-12-05T02:44:15.570Z,5.03
2022-12-05T02:47:20.583Z,5.30
2022-12-05T02:50:26.771Z,5.25
2022-12-05T02:53:31.246Z,5.20
2022-12-05T02:56:35.824Z,5.07
2022-12-05T02:59:37.500Z,4.60
2022-12-05T03:02:41.205Z,5.07
2022-12-05T03:05:51.552Z,5.10
2022-12-05T03:09:23.309Z,4.65
2022-12-05T03:12:29.028Z,5.07
2022-12-05T03:15:41.776Z,5.00
2022-12-05T03:18:51.656Z,4.95
2022-12-05T13:36:04.782Z,3.47
2022-12-05T13:39:45.041Z,3.47
2022-12-05T13:42:48.183Z,3.10
2022-12-05T13:46:09.596Z,3.05
2022-12-05T13:49:43.301Z,3.13
2022-12-05T13:52:54.884Z,3.10
2022-12-05T13:55:58.292Z,2.50
2022-12-05T13:58:59.845Z,3.00
2022-12-05T14:02:01.429Z,2.90
2022-12-05T14:05:24.996Z,2.97
2022-12-05T14:08:26.548Z,2.80
2022-12-05T14:11:28.044Z,2.40
2022-12-05T14:14:57.594Z,3.20
2022-12-05T14:18:36.712Z,2.80
2022-12-05T14:21:45.391Z,2.88
2022-12-05T14:24:58.923Z,2.63
2022-12-05T14:28:38.802Z,2.67
2022-12-05T14:31:40.213Z,2.40
2022-12-05T14:34:56.293Z,2.63
2022-12-05T14:38:07.884Z,2.80
2022-12-05T14:41:34.678Z,2.63
2022-12-05T14:44:36.690Z,2.80
2022-12-05T14:47:38.194Z,2.80
2022-12-05T14:50:48.418Z,2.60
2022-12-05T14:53:50.415Z,2.53
2022-12-05T14:57:01.854Z,2.80
2022-12-05T15:00:07.356Z,2.38
2022-12-05T15:03:25.235Z,2.80
2022-12-05T15:06:26.973Z,3.05
2022-12-05T15:09:56.451Z,2.45
2022-12-05T15:13:07.593Z,2.60
2022-12-05T22:35:57.143Z,2.90
2022-12-05T22:38:58.963Z,2.85
2022-12-05T22:42:00.500Z,3.08
2022-12-05T22:45:01.981Z,2.97
2022-12-05T22:48:03.653Z,2.70
2022-12-05T22:51:06.583Z,2.88
2022-12-05T22:54:08.094Z,2.63
2022-12-05T22:57:09.562Z,2.80
2022-12-05T23:00:11.720Z,2.70
2022-12-05T23:03:13.280Z,2.88
2022-12-05T23:06:16.493Z,2.70
2022-12-05T23:09:17.964Z,2.50
2022-12-05T23:12:19.535Z,2.40
2022-12-05T23:15:21.037Z,2.28
2022-12-05T23:18:23.128Z,2.58
2022-12-05T23:21:34.215Z,2.20
2022-12-05T23:24:35.691Z,2.03
2022-12-05T23:27:37.288Z,2.35
2022-12-05T23:30:38.723Z,2.88
2022-12-05T23:33:40.888Z,2.35
2022-12-05T23:36:42.367Z,2.80
2022-12-05T23:39:44.429Z,2.28
2022-12-05T23:42:45.871Z,2.45
2022-12-05T23:45:47.311Z,2.47
2022-12-05T23:48:49.223Z,2.63
2022-12-05T23:51:50.723Z,2.20
2022-12-05T23:54:52.168Z,2.10
2022-12-05T23:57:53.627Z,2.22
